Time;durP1;ratioP1;P1;durP2;ratioP2;P2;SDS_P1;SDS_P2;PMS_P1;PMS_P2;Temp;Humidity;BMP_temperature;BMP_pressure;BME280_temperature;BME280_humidity;BME280_pressure;Samples;Min_cycle;Max_cycle;Signal;HPM_P1;HPM_P2
2022/09/27 00:01:13;;;;;;;;;;;;;;;;;;4987357;28;8817;-84
2022/09/27 00:03:40;;;;;;;;;;;;;;;;;;4986569;28;7331;-86
2022/09/27 00:06:34;;;;;;;;;;;;;;;;;;4985437;28;7070;-86
2022/09/27 00:09:00;;;;;;;;;;;;;;;;;;4976159;28;8520;-86
2022/09/27 00:11:25;;;;;;;;;;;;;;;;;;4985334;28;7219;-87
2022/09/27 00:13:52;;;;;;;;;;;;;;;;;;4987825;28;8431;-84
2022/09/27 00:16:17;;;;;;;;;;;;;;;;;;4989502;28;8636;-86
2022/09/27 00:18:43;;;;;;;;;;;;;;;;;;4986329;28;7160;-88
2022/09/27 00:21:11;;;;;;;;;;;;;;;;;;4987531;28;8405;-87
2022/09/27 00:23:37;;;;;;;;;;;;;;;;;;4986232;28;8483;-88
2022/09/27 00:26:04;;;;;;;;;;;;;;;;;;4989006;28;8445;-85
2022/09/27 00:28:30;;;;;;;;;;;;;;;;;;4988646;28;8390;-84
2022/09/27 00:30:55;;;;;;;;;;;;;;;;;;4989471;28;8377;-82
2022/09/27 00:33:21;;;;;;;;;;;;;;;;;;4989786;28;9503;-85
2022/09/27 00:35:46;;;;;;;;;;;;;;;;;;4991195;28;8415;-82
2022/09/27 00:38:12;;;;;;;;;;;;;;;;;;4991333;28;7019;-83
2022/09/27 00:40:38;;;;;;;;;;;;;;;;;;4992373;28;8377;-82
2022/09/27 00:43:24;;;;;;;;;;;;;;;;;;4992094;28;7300;-82
2022/09/27 00:45:58;;;;;;;;;;;;;;;;;;4991645;28;8454;-83
2022/09/27 00:48:28;;;;;;;;;;;;;;;;;;4991430;28;7000;-83
2022/09/27 00:50:57;;;;;;;;;;;;;;;;;;4991405;28;7151;-82
2022/09/27 00:53:32;;;;;;;;;;;;;;;;;;4989871;28;8625;-82
2022/09/27 00:56:00;;;;;;;;;;;;;;;;;;4990609;28;7168;-83
2022/09/27 00:58:29;;;;;;;;;;;;;;;;;;4990269;28;7047;-82
2022/09/27 01:00:58;;;;;;;;;;;;;;;;;;4990469;28;7155;-82
2022/09/27 01:03:30;;;;;;;;;;;;;;;;;;4990367;28;7448;-84
2022/09/27 01:05:57;;;;;;;;;;;;;;;;;;4991383;28;8712;-83
2022/09/27 01:08:23;;;;;;;;;;;;;;;;;;4990719;28;7116;-82
2022/09/27 01:11:02;;;;;;;;;;;;;;;;;;4990954;28;8690;-83
2022/09/27 01:13:42;;;;;;;;;;;;;;;;;;4990068;28;8625;-83
2022/09/27 01:16:23;;;;;;;;;;;;;;;;;;4990041;28;8406;-83
2022/09/27 01:19:07;;;;;;;;;;;;;;;;;;4989121;28;8749;-85
2022/09/27 01:21:32;;;;;;;;;;;;;;;;;;4990432;28;7056;-81
2022/09/27 01:24:08;;;;;;;;;;;;;;;;;;4991317;28;8446;-82
2022/09/27 01:26:43;;;;;;;;;;;;;;;;;;4991017;28;8399;-85
2022/09/27 01:29:23;;;;;;;;;;;;;;;;;;4990467;28;8287;-82
2022/09/27 01:32:11;;;;;;;;;;;;;;;;;;4989973;28;8772;-82
2022/09/27 01:34:42;;;;;;;;;;;;;;;;;;5005720;28;7025;-82
2022/09/27 01:37:31;;;;;;;;;;;;;;;;;;4989461;28;8857;-82
2022/09/27 01:40:03;;;;;;;;;;;;;;;;;;4987673;28;7026;-83
2022/09/27 01:42:35;;;;;;;;;;;;;;;;;;4987688;28;8613;-86
2022/09/27 01:45:06;;;;;;;;;;;;;;;;;;4987512;28;8754;-82
2022/09/27 01:47:51;;;;;;;;;;;;;;;;;;4987510;28;8446;-84
2022/09/27 01:50:29;;;;;;;;;;;;;;;;;;4985078;28;8766;-86
2022/09/27 01:53:01;;;;;;;;;;;;;;;;;;4984522;28;7055;-88
2022/09/27 01:55:31;;;;;;;;;;;;;;;;;;4983912;28;7054;-83
2022/09/27 01:58:03;;;;;;;;;;;;;;;;;;4982990;28;6843;-84
2022/09/27 02:00:29;;;;;;;;;;;;;;;;;;4983369;28;7497;-88
2022/09/27 02:03:02;;;;;;;;;;;;;;;;;;4983603;28;8590;-87
2022/09/27 02:05:32;;;;;;;;;;;;;;;;;;4984869;28;7534;-85
2022/09/27 02:08:05;;;;;;;;;;;;;;;;;;5001277;28;8923;-85
2022/09/27 02:10:38;;;;;;;;;;;;;;;;;;5003939;28;8403;-85
2022/09/27 02:13:09;;;;;;;;;;;;;;;;;;4988408;28;6997;-83
2022/09/27 02:15:53;;;;;;;;;;;;;;;;;;4988920;28;8404;-85
2022/09/27 02:18:28;;;;;;;;;;;;;;;;;;5005360;28;8757;-83
2022/09/27 02:20:58;;;;;;;;;;;;;;;;;;5005877;28;8689;-83
2022/09/27 02:23:30;;;;;;;;;;;;;;;;;;5005466;28;8296;-82
2022/09/27 02:25:59;;;;;;;;;;;;;;;;;;5005700;28;7144;-82
2022/09/27 02:28:34;;;;;;;;;;;;;;;;;;5005318;28;8260;-85
2022/09/27 02:31:00;;;;;;;;;;;;;;;;;;5006257;28;8399;-81
2022/09/27 02:33:29;;;;;;;;;;;;;;;;;;5005691;28;8351;-82
2022/09/27 02:35:55;;;;;;;;;;;;;;;;;;5005678;28;7920;-82
2022/09/27 02:38:20;;;;;;;;;;;;;;;;;;5005745;28;8394;-82
2022/09/27 02:40:47;;;;;;;;;;;;;;;;;;5004907;28;8346;-84
2022/09/27 02:43:14;;;;;;;;;;;;;;;;;;5005339;28;8721;-82
2022/09/27 02:45:43;;;;;;;;;;;;;;;;;;4988646;28;7085;-83
2022/09/27 02:48:27;;;;;;;;;;;;;;;;;;4987141;28;8388;-82
2022/09/27 02:51:02;;;;;;;;;;;;;;;;;;5003724;28;7154;-83
2022/09/27 02:53:31;;;;;;;;;;;;;;;;;;5003589;28;8421;-85
2022/09/27 02:56:09;;;;;;;;;;;;;;;;;;4987637;28;8784;-82
2022/09/27 02:58:35;;;;;;;;;;;;;;;;;;5004165;28;7172;-85
2022/09/27 03:01:19;;;;;;;;;;;;;;;;;;4988357;28;8455;-82
2022/09/27 03:03:56;;;;;;;;;;;;;;;;;;4988045;28;9341;-85
2022/09/27 03:06:23;;;;;;;;;;;;;;;;;;4988583;28;7043;-82
2022/09/27 03:08:50;;;;;;;;;;;;;;;;;;4999731;28;8429;-83
2022/09/27 03:11:15;;;;;;;;;;;;;;;;;;5002608;28;7153;-82
2022/09/27 03:13:43;;;;;;;;;;;;;;;;;;5003437;28;7089;-82
2022/09/27 03:16:08;;;;;;;;;;;;;;;;;;5007617;28;8670;-82
2022/09/27 03:18:34;;;;;;;;;;;;;;;;;;5010291;28;7150;-82
2022/09/27 03:20:59;;;;;;;;;;;;;;;;;;5009811;28;7083;-82
2022/09/27 03:23:26;;;;;;;;;;;;;;;;;;5009570;28;9792;-83
2022/09/27 03:25:52;;;;;;;;;;;;;;;;;;4993088;28;7050;-82
2022/09/27 03:28:18;;;;;;;;;;;;;;;;;;5009466;28;7034;-82
2022/09/27 03:30:45;;;;;;;;;;;;;;;;;;5009106;28;7173;-83
2022/09/27 03:33:11;;;;;;;;;;;;;;;;;;5008800;28;7378;-82
2022/09/27 03:35:37;;;;;;;;;;;;;;;;;;5009365;28;8423;-82
2022/09/27 03:38:03;;;;;;;;;;;;;;;;;;5009644;28;8421;-81
2022/09/27 03:40:28;;;;;;;;;;;;;;;;;;5009824;28;8690;-83
2022/09/27 03:42:54;;;;;;;;;;;;;;;;;;5009752;28;6822;-81
2022/09/27 03:45:19;;;;;;;;;;;;;;;;;;5009615;28;8360;-81
2022/09/27 03:47:45;;;;;;;;;;;;;;;;;;5009433;28;7018;-81
2022/09/27 03:50:11;;;;;;;;;;;;;;;;;;5009327;28;7002;-81
2022/09/27 03:52:37;;;;;;;;;;;;;;;;;;5009474;28;8407;-82
2022/09/27 03:55:03;;;;;;;;;;;;;;;;;;5009148;28;8481;-82
2022/09/27 03:57:29;;;;;;;;;;;;;;;;;;5008727;28;8535;-83
2022/09/27 03:59:57;;;;;;;;;;;;;;;;;;5005437;28;7053;-88
2022/09/27 04:02:23;;;;;;;;;;;;;;;;;;5003753;28;8800;-85
2022/09/27 04:04:48;;;;;;;;;;;;;;;;;;5002938;28;8568;-84
2022/09/27 04:07:14;;;;;;;;;;;;;;;;;;5003696;28;8424;-84
2022/09/27 04:09:40;;;;;;;;;;;;;;;;;;5006097;28;7055;-90
2022/09/27 04:12:06;;;;;;;;;;;;;;;;;;5007882;28;7218;-82
2022/09/27 04:14:32;;;;;;;;;;;;;;;;;;5008157;28;8412;-83
2022/09/27 04:16:58;;;;;;;;;;;;;;;;;;5007133;28;6881;-82
2022/09/27 04:19:24;;;;;;;;;;;;;;;;;;5007370;28;7155;-82
2022/09/27 04:21:49;;;;;;;;;;;;;;;;;;5008355;28;8686;-82
2022/09/27 04:24:14;;;;;;;;;;;;;;;;;;5008380;28;8404;-82
2022/09/27 04:26:40;;;;;;;;;;;;;;;;;;5007242;28;8541;-81
2022/09/27 04:29:08;;;;;;;;;;;;;;;;;;5007398;28;8626;-82
2022/09/27 04:31:35;;;;;;;;;;;;;;;;;;5007159;28;6995;-82
2022/09/27 04:34:01;;;;;;;;;;;;;;;;;;5006863;28;6831;-82
2022/09/27 04:36:27;;;;;;;;;;;;;;;;;;5007367;28;8692;-81
2022/09/27 04:38:55;;;;;;;;;;;;;;;;;;5001727;28;7135;-82
2022/09/27 04:41:22;;;;;;;;;;;;;;;;;;4996568;28;7166;-82
2022/09/27 04:43:49;;;;;;;;;;;;;;;;;;5006527;28;8300;-82
2022/09/27 04:46:15;;;;;;;;;;;;;;;;;;5006822;28;7051;-82
2022/09/27 04:48:41;;;;;;;;;;;;;;;;;;5006886;28;7162;-82
2022/09/27 04:51:06;;;;;;;;;;;;;;;;;;5007509;28;7126;-82
2022/09/27 04:53:33;;;;;;;;;;;;;;;;;;5006934;28;7150;-82
2022/09/27 04:56:01;;;;;;;;;;;;;;;;;;5007109;28;7031;-83
2022/09/27 04:58:27;;;;;;;;;;;;;;;;;;5007112;28;6835;-81
2022/09/27 05:00:54;;;;;;;;;;;;;;;;;;5007695;28;7052;-84
2022/09/27 05:03:21;;;;;;;;;;;;;;;;;;5008085;28;8297;-81
2022/09/27 05:05:46;;;;;;;;;;;;;;;;;;5007871;28;8552;-82
2022/09/27 05:08:12;;;;;;;;;;;;;;;;;;5007566;28;6988;-82
2022/09/27 05:10:37;;;;;;;;;;;;;;;;;;5014519;28;8441;-82
2022/09/27 05:13:03;;;;;;;;;;;;;;;;;;4999480;28;8316;-81
2022/09/27 05:15:28;;;;;;;;;;;;;;;;;;5015579;28;6894;-82
2022/09/27 05:17:54;;;;;;;;;;;;;;;;;;4998597;28;8352;-82
2022/09/27 05:20:19;;;;;;;;;;;;;;;;;;4996848;28;8408;-82
2022/09/27 05:22:45;;;;;;;;;;;;;;;;;;5014768;28;6822;-82
2022/09/27 05:25:11;;;;;;;;;;;;;;;;;;4999878;28;7268;-86
2022/09/27 05:27:36;;;;;;;;;;;;;;;;;;4998339;28;7027;-82
2022/09/27 05:30:02;;;;;;;;;;;;;;;;;;5015994;28;6861;-81
2022/09/27 05:32:28;;;;;;;;;;;;;;;;;;4999195;28;8393;-82
2022/09/27 05:34:54;;;;;;;;;;;;;;;;;;5016435;28;7297;-83
2022/09/27 05:37:20;;;;;;;;;;;;;;;;;;4998864;28;8424;-82
2022/09/27 05:39:46;;;;;;;;;;;;;;;;;;5017268;28;8379;-81
2022/09/27 05:42:14;;;;;;;;;;;;;;;;;;4998806;28;7428;-81
2022/09/27 05:44:40;;;;;;;;;;;;;;;;;;5014076;28;7350;-82
2022/09/27 05:47:06;;;;;;;;;;;;;;;;;;5015200;28;8344;-82
2022/09/27 05:49:32;;;;;;;;;;;;;;;;;;5003227;28;7140;-81
2022/09/27 05:51:58;;;;;;;;;;;;;;;;;;4998207;28;8572;-82
2022/09/27 05:54:24;;;;;;;;;;;;;;;;;;4996272;28;7174;-82
2022/09/27 05:56:53;;;;;;;;;;;;;;;;;;5019059;28;8392;-82
2022/09/27 05:59:18;;;;;;;;;;;;;;;;;;4998597;28;8480;-82
2022/09/27 06:01:43;;;;;;;;;;;;;;;;;;5011655;28;8398;-82
2022/09/27 06:04:09;;;;;;;;;;;;;;;;;;4997753;28;8465;-81
2022/09/27 06:06:36;;;;;;;;;;;;;;;;;;5014022;28;8203;-81
2022/09/27 06:09:02;;;;;;;;;;;;;;;;;;5015101;28;8435;-82
2022/09/27 06:11:27;;;;;;;;;;;;;;;;;;4999815;28;8734;-82
2022/09/27 06:13:53;;;;;;;;;;;;;;;;;;4999880;28;8383;-81
2022/09/27 06:16:18;;;;;;;;;;;;;;;;;;4998659;28;8370;-81
2022/09/27 06:18:44;;;;;;;;;;;;;;;;;;5007141;28;7205;-82
2022/09/27 06:21:09;;;;;;;;;;;;;;;;;;4996576;28;7021;-83
2022/09/27 06:23:35;;;;;;;;;;;;;;;;;;4997353;28;8465;-82
2022/09/27 06:26:02;;;;;;;;;;;;;;;;;;5005062;28;8414;-85
2022/09/27 06:28:28;;;;;;;;;;;;;;;;;;4993628;28;7036;-82
2022/09/27 06:30:54;;;;;;;;;;;;;;;;;;4996829;28;9409;-86
2022/09/27 06:33:20;;;;;;;;;;;;;;;;;;5013371;28;7333;-82
2022/09/27 06:35:48;;;;;;;;;;;;;;;;;;5016939;28;8583;-81
2022/09/27 06:38:15;;;;;;;;;;;;;;;;;;5020890;28;8440;-87
2022/09/27 06:40:44;;;;;;;;;;;;;;;;;;5023447;28;8588;-85
2022/09/27 06:43:11;;;;;;;;;;;;;;;;;;5021775;28;7279;-88
2022/09/27 06:45:38;;;;;;;;;;;;;;;;;;5017488;28;7012;-86
2022/09/27 06:48:04;;;;;;;;;;;;;;;;;;5016317;28;8683;-88
2022/09/27 06:50:32;;;;;;;;;;;;;;;;;;5019999;28;8344;-89
2022/09/27 06:52:58;;;;;;;;;;;;;;;;;;5018764;28;8496;-90
2022/09/27 06:55:24;;;;;;;;;;;;;;;;;;5020980;28;8566;-89
2022/09/27 07:00:42;;;;;;;;;;;;;;;;;;5021988;28;7502;-88
2022/09/27 07:03:13;;;;;;;;;;;;;;;;;;5020296;28;7194;-89
2022/09/27 07:05:41;;;;;;;;;;;;;;;;;;5019893;28;8801;-89
2022/09/27 07:08:10;;;;;;;;;;;;;;;;;;5020188;28;6810;-87
2022/09/27 07:10:37;;;;;;;;;;;;;;;;;;5019305;28;8978;-88
2022/09/27 07:13:07;;;;;;;;;;;;;;;;;;5016877;28;8772;-84
2022/09/27 07:15:35;;;;;;;;;;;;;;;;;;5016812;28;7093;-88
2022/09/27 07:18:01;;;;;;;;;;;;;;;;;;5022946;28;7034;-84
2022/09/27 07:20:28;;;;;;;;;;;;;;;;;;5026450;28;7261;-84
2022/09/27 07:22:54;;;;;;;;;;;;;;;;;;5026713;28;7149;-84
2022/09/27 07:25:21;;;;;;;;;;;;;;;;;;5026174;28;7223;-84
2022/09/27 07:27:46;;;;;;;;;;;;;;;;;;5023935;28;7046;-88
2022/09/27 07:30:13;;;;;;;;;;;;;;;;;;4998151;28;7025;-89
2022/09/27 07:32:39;;;;;;;;;;;;;;;;;;4978858;28;7163;-87
2022/09/27 07:35:06;;;;;;;;;;;;;;;;;;4978337;28;8385;-89
2022/09/27 07:37:33;;;;;;;;;;;;;;;;;;4978784;28;8492;-88
2022/09/27 07:39:59;;;;;;;;;;;;;;;;;;4979625;28;6999;-87
2022/09/27 07:42:27;;;;;;;;;;;;;;;;;;4980592;28;8435;-88
2022/09/27 07:44:56;;;;;;;;;;;;;;;;;;4980486;28;7339;-88
2022/09/27 07:47:23;;;;;;;;;;;;;;;;;;4980111;28;7029;-88
2022/09/27 07:49:51;;;;;;;;;;;;;;;;;;4981761;28;7174;-88
2022/09/27 07:52:18;;;;;;;;;;;;;;;;;;4987094;28;7255;-84
2022/09/27 07:54:45;;;;;;;;;;;;;;;;;;4988509;28;7037;-90
2022/09/27 07:57:10;;;;;;;;;;;;;;;;;;4984013;28;7044;-90
2022/09/27 07:59:36;;;;;;;;;;;;;;;;;;4984886;28;8394;-87
2022/09/27 08:02:01;;;;;;;;;;;;;;;;;;4982936;28;8383;-87
2022/09/27 08:04:27;;;;;;;;;;;;;;;;;;4982608;28;8466;-87
2022/09/27 08:06:53;;;;;;;;;;;;;;;;;;4984616;28;8624;-83
2022/09/27 08:09:18;;;;;;;;;;;;;;;;;;4979329;28;7412;-87
2022/09/27 08:11:44;;;;;;;;;;;;;;;;;;4977931;28;8416;-87
2022/09/27 08:14:10;;;;;;;;;;;;;;;;;;4978582;28;7156;-87
2022/09/27 08:16:36;;;;;;;;;;;;;;;;;;4978344;28;7231;-82
2022/09/27 08:19:02;;;;;;;;;;;;;;;;;;4977249;28;8380;-80
2022/09/27 08:21:29;;;;;;;;;;;;;;;;;;4977124;28;8288;-81
2022/09/27 08:23:55;;;;;;;;;;;;;;;;;;4976367;28;7038;-81
2022/09/27 08:26:21;;;;;;;;;;;;;;;;;;4977031;28;8494;-82
2022/09/27 08:28:47;;;;;;;;;;;;;;;;;;4976938;28;8462;-82
2022/09/27 08:31:12;;;;;;;;;;;;;;;;;;4977120;28;8634;-83
2022/09/27 08:33:38;;;;;;;;;;;;;;;;;;4976479;28;8406;-82
2022/09/27 08:36:03;;;;;;;;;;;;;;;;;;4976366;28;7005;-82
2022/09/27 08:38:29;;;;;;;;;;;;;;;;;;4976695;28;6817;-80
2022/09/27 08:40:58;;;;;;;;;;;;;;;;;;4976572;28;7240;-81
2022/09/27 08:43:27;;;;;;;;;;;;;;;;;;4976504;28;8973;-80
2022/09/27 08:46:07;;;;;;;;;;;;;;;;;;4993123;28;6825;-82
2022/09/27 08:48:36;;;;;;;;;;;;;;;;;;4992548;28;7330;-81
2022/09/27 08:51:05;;;;;;;;;;;;;;;;;;4976358;28;8329;-81
2022/09/27 08:53:38;;;;;;;;;;;;;;;;;;4977231;28;7996;-80
2022/09/27 08:56:07;;;;;;;;;;;;;;;;;;4976555;28;8400;-81
2022/09/27 08:58:34;;;;;;;;;;;;;;;;;;4976755;28;8484;-81
2022/09/27 09:01:03;;;;;;;;;;;;;;;;;;4976605;28;9266;-81
2022/09/27 09:03:31;;;;;;;;;;;;;;;;;;4976211;28;8286;-80
2022/09/27 09:06:11;;;;;;;;;;;;;;;;;;4976518;28;8397;-81
2022/09/27 09:08:36;;;;;;;;;;;;;;;;;;4976353;28;7049;-84
2022/09/27 09:14:08;;;;;;;;;;;;;;;;;;4977068;28;6955;-84
2022/09/27 09:16:52;;;;;;;;;;;;;;;;;;4975949;28;7045;-83
2022/09/27 09:19:18;;;;;;;;;;;;;;;;;;4975808;28;8397;-80
2022/09/27 09:21:59;;;;;;;;;;;;;;;;;;4976469;28;7103;-81
2022/09/27 09:24:40;;;;;;;;;;;;;;;;;;4975923;28;7039;-80
2022/09/27 09:27:23;;;;;;;;;;;;;;;;;;4977092;28;7121;-83
2022/09/27 09:30:01;;;;;;;;;;;;;;;;;;4976068;28;8367;-83
2022/09/27 09:32:39;;;;;;;;;;;;;;;;;;4991864;28;7252;-83
2022/09/27 09:35:13;;;;;;;;;;;;;;;;;;4992045;28;7046;-82
2022/09/27 09:37:44;;;;;;;;;;;;;;;;;;4976342;28;7155;-82
2022/09/27 09:40:13;;;;;;;;;;;;;;;;;;4975548;28;8484;-79
2022/09/27 09:42:46;;;;;;;;;;;;;;;;;;4991649;28;8505;-80
2022/09/27 09:45:37;;;;;;;;;;;;;;;;;;4975844;28;8436;-82
2022/09/27 09:48:14;;;;;;;;;;;;;;;;;;4973284;28;8373;-84
2022/09/27 09:50:45;;;;;;;;;;;;;;;;;;4975385;28;8920;-84
2022/09/27 09:53:20;;;;;;;;;;;;;;;;;;4975803;28;8403;-83
2022/09/27 09:55:58;;;;;;;;;;;;;;;;;;4976299;28;8562;-84
2022/09/27 09:58:33;;;;;;;;;;;;;;;;;;4971786;28;8787;-81
2022/09/27 10:01:09;;;;;;;;;;;;;;;;;;4975236;28;8410;-85
2022/09/27 10:03:35;;;;;;;;;;;;;;;;;;4975424;28;8442;-84
2022/09/27 10:06:01;;;;;;;;;;;;;;;;;;4975486;28;7009;-86
2022/09/27 10:08:26;;;;;;;;;;;;;;;;;;4974690;28;8401;-85
2022/09/27 10:10:51;;;;;;;;;;;;;;;;;;4974513;28;8290;-83
2022/09/27 10:13:19;;;;;;;;;;;;;;;;;;4974253;28;8490;-81
2022/09/27 10:16:01;;;;;;;;;;;;;;;;;;4975541;28;8481;-83
2022/09/27 10:18:28;;;;;;;;;;;;;;;;;;4975079;28;7039;-81
2022/09/27 10:21:09;;;;;;;;;;;;;;;;;;4974106;28;7276;-82
2022/09/27 10:23:55;;;;;;;;;;;;;;;;;;4974936;28;8834;-82
2022/09/27 10:26:21;;;;;;;;;;;;;;;;;;4973713;28;7045;-83
2022/09/27 10:28:49;;;;;;;;;;;;;;;;;;4974432;28;8399;-83
2022/09/27 10:31:18;;;;;;;;;;;;;;;;;;4974660;28;8743;-83
2022/09/27 10:33:55;;;;;;;;;;;;;;;;;;4974862;28;7248;-83
2022/09/27 10:36:25;;;;;;;;;;;;;;;;;;4974437;28;7045;-83
2022/09/27 10:38:52;;;;;;;;;;;;;;;;;;4974745;28;7165;-82
2022/09/27 10:41:30;;;;;;;;;;;;;;;;;;4974244;28;8426;-83
2022/09/27 10:43:56;;;;;;;;;;;;;;;;;;4974184;28;8390;-83
2022/09/27 10:46:24;;;;;;;;;;;;;;;;;;4974921;28;8709;-84
2022/09/27 10:49:07;;;;;;;;;;;;;;;;;;4991114;28;8430;-83
2022/09/27 10:51:34;;;;;;;;;;;;;;;;;;4974966;28;7145;-83
2022/09/27 10:54:00;;;;;;;;;;;;;;;;;;4974576;28;7245;-83
2022/09/27 10:56:35;;;;;;;;;;;;;;;;;;4975094;28;7423;-85
2022/09/27 10:59:02;;;;;;;;;;;;;;;;;;4974663;28;7198;-85
2022/09/27 11:01:40;;;;;;;;;;;;;;;;;;4974989;28;7048;-84
2022/09/27 11:04:06;;;;;;;;;;;;;;;;;;4975246;28;8440;-84
2022/09/27 11:06:36;;;;;;;;;;;;;;;;;;4974510;28;8434;-82
2022/09/27 11:09:28;;;;;;;;;;;;;;;;;;4975096;28;7181;-83
2022/09/27 11:12:14;;;;;;;;;;;;;;;;;;4971979;28;7157;-82
2022/09/27 11:14:40;;;;;;;;;;;;;;;;;;4972630;28;7507;-82
2022/09/27 11:17:15;;;;;;;;;;;;;;;;;;4974632;28;7236;-81
2022/09/27 11:19:47;;;;;;;;;;;;;;;;;;4974611;28;8378;-81
2022/09/27 11:22:16;;;;;;;;;;;;;;;;;;4990775;28;7047;-81
2022/09/27 11:25:00;;;;;;;;;;;;;;;;;;4990781;28;7173;-82
2022/09/27 11:27:32;;;;;;;;;;;;;;;;;;4974878;28;7051;-82
2022/09/27 11:30:00;;;;;;;;;;;;;;;;;;4990670;28;8574;-80
2022/09/27 11:32:35;;;;;;;;;;;;;;;;;;4990765;28;7040;-84
2022/09/27 11:35:01;;;;;;;;;;;;;;;;;;4990916;28;7172;-84
2022/09/27 11:37:26;;;;;;;;;;;;;;;;;;4992890;28;7229;-83
2022/09/27 11:40:24;;;;;;;;;;;;;;;;;;4993959;28;8440;-84
2022/09/27 11:43:09;;;;;;;;;;;;;;;;;;4956571;28;8505;-81
2022/09/27 11:45:50;;;;;;;;;;;;;;;;;;4977819;28;8711;-82
2022/09/27 11:48:34;;;;;;;;;;;;;;;;;;4993713;28;7141;-81
2022/09/27 11:51:07;;;;;;;;;;;;;;;;;;4978008;28;7426;-81
2022/09/27 11:53:53;;;;;;;;;;;;;;;;;;4977856;28;7053;-81
2022/09/27 11:56:32;;;;;;;;;;;;;;;;;;4977979;28;8418;-81
2022/09/27 11:59:00;;;;;;;;;;;;;;;;;;4977858;28;8283;-81
2022/09/27 12:01:56;;;;;;;;;;;;;;;;;;4994022;28;8490;-80
2022/09/27 12:04:41;;;;;;;;;;;;;;;;;;4944237;28;7164;-80
2022/09/27 12:07:16;;;;;;;;;;;;;;;;;;4977141;28;7918;-80
2022/09/27 12:09:45;;;;;;;;;;;;;;;;;;4977190;28;8112;-81
2022/09/27 12:12:15;;;;;;;;;;;;;;;;;;4977391;28;7129;-81
2022/09/27 12:14:49;;;;;;;;;;;;;;;;;;4976760;28;8719;-80
2022/09/27 12:17:19;;;;;;;;;;;;;;;;;;4993669;28;8293;-82
2022/09/27 12:19:51;;;;;;;;;;;;;;;;;;4977437;28;8833;-81
2022/09/27 12:22:25;;;;;;;;;;;;;;;;;;4977363;28;8493;-81
2022/09/27 12:24:52;;;;;;;;;;;;;;;;;;4977578;28;7362;-81
2022/09/27 12:27:47;;;;;;;;;;;;;;;;;;4976858;28;8874;-82
2022/09/27 12:30:13;;;;;;;;;;;;;;;;;;4943394;28;8686;-82
2022/09/27 12:32:43;;;;;;;;;;;;;;;;;;4976959;28;8705;-80
2022/09/27 12:35:18;;;;;;;;;;;;;;;;;;4993255;28;7174;-82
2022/09/27 12:38:00;;;;;;;;;;;;;;;;;;4977398;28;8463;-81
2022/09/27 12:40:34;;;;;;;;;;;;;;;;;;4976902;28;8466;-80
2022/09/27 12:43:06;;;;;;;;;;;;;;;;;;4977272;28;8326;-81
2022/09/27 12:45:31;;;;;;;;;;;;;;;;;;4992828;28;8762;-82
2022/09/27 12:47:57;;;;;;;;;;;;;;;;;;4975835;28;8504;-81
2022/09/27 12:50:29;;;;;;;;;;;;;;;;;;4993250;28;7234;-81
2022/09/27 12:53:03;;;;;;;;;;;;;;;;;;4977142;28;8458;-82
2022/09/27 12:55:38;;;;;;;;;;;;;;;;;;4976684;28;8803;-82
2022/09/27 12:58:09;;;;;;;;;;;;;;;;;;4993194;28;8529;-82
2022/09/27 13:00:50;;;;;;;;;;;;;;;;;;4992434;28;8600;-81
2022/09/27 13:03:34;;;;;;;;;;;;;;;;;;4992953;28;7064;-81
2022/09/27 13:06:03;;;;;;;;;;;;;;;;;;4976498;28;8380;-82
2022/09/27 13:08:47;;;;;;;;;;;;;;;;;;4992244;28;8416;-82
2022/09/27 13:11:22;;;;;;;;;;;;;;;;;;4976162;28;8733;-81
2022/09/27 13:13:48;;;;;;;;;;;;;;;;;;4992135;28;6911;-80
2022/09/27 13:16:15;;;;;;;;;;;;;;;;;;4976024;28;8436;-81
2022/09/27 13:18:46;;;;;;;;;;;;;;;;;;4976457;28;8433;-82
2022/09/27 13:21:32;;;;;;;;;;;;;;;;;;4992139;28;8404;-82
2022/09/27 13:23:57;;;;;;;;;;;;;;;;;;4975780;28;8399;-81
2022/09/27 13:26:43;;;;;;;;;;;;;;;;;;4976460;28;7581;-81
2022/09/27 13:29:24;;;;;;;;;;;;;;;;;;4976667;28;6906;-80
2022/09/27 13:31:52;;;;;;;;;;;;;;;;;;4975652;28;8799;-80
2022/09/27 13:34:36;;;;;;;;;;;;;;;;;;4992478;28;8481;-81
2022/09/27 13:37:20;;;;;;;;;;;;;;;;;;4975781;28;8360;-80
2022/09/27 13:39:46;;;;;;;;;;;;;;;;;;4975795;28;7056;-81
2022/09/27 13:42:28;;;;;;;;;;;;;;;;;;4974825;28;7242;-81
2022/09/27 13:45:04;;;;;;;;;;;;;;;;;;4974859;28;7171;-81
2022/09/27 13:47:38;;;;;;;;;;;;;;;;;;4974886;28;7033;-80
2022/09/27 13:50:22;;;;;;;;;;;;;;;;;;4976145;28;7184;-80
2022/09/27 13:53:00;;;;;;;;;;;;;;;;;;4975582;28;8748;-81
2022/09/27 13:55:39;;;;;;;;;;;;;;;;;;4991551;28;8928;-80
2022/09/27 13:58:27;;;;;;;;;;;;;;;;;;4991486;28;7183;-80
2022/09/27 14:00:57;;;;;;;;;;;;;;;;;;4968160;28;8384;-80
2022/09/27 14:03:51;;;;;;;;;;;;;;;;;;4975175;28;7195;-82
2022/09/27 14:06:21;;;;;;;;;;;;;;;;;;4975509;28;8449;-82
2022/09/27 14:08:46;;;;;;;;;;;;;;;;;;4959217;28;8767;-81
2022/09/27 14:11:15;;;;;;;;;;;;;;;;;;4991175;28;6816;-81
2022/09/27 14:13:45;;;;;;;;;;;;;;;;;;4975303;28;7162;-81
2022/09/27 14:16:14;;;;;;;;;;;;;;;;;;4975208;28;8418;-82
2022/09/27 14:18:49;;;;;;;;;;;;;;;;;;4975304;28;7169;-81
2022/09/27 14:21:31;;;;;;;;;;;;;;;;;;4974825;28;7079;-82
2022/09/27 14:24:15;;;;;;;;;;;;;;;;;;4974787;28;7225;-83
2022/09/27 14:26:41;;;;;;;;;;;;;;;;;;4974829;28;7076;-81
2022/09/27 14:29:15;;;;;;;;;;;;;;;;;;4975122;28;8433;-82
2022/09/27 14:31:40;;;;;;;;;;;;;;;;;;4975507;28;8458;-82
2022/09/27 14:34:07;;;;;;;;;;;;;;;;;;4975340;28;8679;-82
2022/09/27 14:39:24;;;;;;;;;;;;;;;;;;4975530;28;6799;-82
2022/09/27 14:41:51;;;;;;;;;;;;;;;;;;4974916;28;8730;-82
2022/09/27 14:44:18;;;;;;;;;;;;;;;;;;4974726;28;8722;-82
2022/09/27 14:46:45;;;;;;;;;;;;;;;;;;4974641;28;8412;-83
2022/09/27 14:49:18;;;;;;;;;;;;;;;;;;4974935;28;9091;-81
2022/09/27 14:51:50;;;;;;;;;;;;;;;;;;4975357;28;8002;-81
2022/09/27 14:54:25;;;;;;;;;;;;;;;;;;4975125;28;7413;-82
2022/09/27 14:56:53;;;;;;;;;;;;;;;;;;4974762;28;7170;-82
2022/09/27 14:59:33;;;;;;;;;;;;;;;;;;4975030;28;6838;-82
2022/09/27 15:02:02;;;;;;;;;;;;;;;;;;4973824;28;7168;-82
2022/09/27 15:04:32;;;;;;;;;;;;;;;;;;4974863;28;7269;-81
2022/09/27 15:07:00;;;;;;;;;;;;;;;;;;4974551;28;7133;-82
2022/09/27 15:09:27;;;;;;;;;;;;;;;;;;4974401;28;8895;-82
2022/09/27 15:12:01;;;;;;;;;;;;;;;;;;4976468;28;7008;-81
2022/09/27 15:14:31;;;;;;;;;;;;;;;;;;4979103;28;7103;-82
2022/09/27 15:17:04;;;;;;;;;;;;;;;;;;4978138;28;7009;-83
2022/09/27 15:19:30;;;;;;;;;;;;;;;;;;4978028;28;7208;-83
2022/09/27 15:21:58;;;;;;;;;;;;;;;;;;4978676;28;7315;-83
2022/09/27 15:24:36;;;;;;;;;;;;;;;;;;4977952;28;7006;-83
2022/09/27 15:27:02;;;;;;;;;;;;;;;;;;4994612;28;8591;-82
2022/09/27 15:29:28;;;;;;;;;;;;;;;;;;4977793;28;8317;-83
2022/09/27 15:31:59;;;;;;;;;;;;;;;;;;4978118;28;7149;-85
2022/09/27 15:34:26;;;;;;;;;;;;;;;;;;4994323;28;6924;-84
2022/09/27 15:36:59;;;;;;;;;;;;;;;;;;4977725;28;7135;-84
2022/09/27 15:39:33;;;;;;;;;;;;;;;;;;4977304;28;7040;-83
2022/09/27 15:42:01;;;;;;;;;;;;;;;;;;4993648;28;8425;-83
2022/09/27 15:44:38;;;;;;;;;;;;;;;;;;4977753;28;8617;-84
2022/09/27 15:47:04;;;;;;;;;;;;;;;;;;4977883;28;7407;-82
2022/09/27 15:49:32;;;;;;;;;;;;;;;;;;4977459;28;8716;-83
2022/09/27 15:52:00;;;;;;;;;;;;;;;;;;4977728;28;7616;-83
2022/09/27 15:54:29;;;;;;;;;;;;;;;;;;4978056;28;7260;-83
2022/09/27 15:56:59;;;;;;;;;;;;;;;;;;4977649;28;7037;-83
2022/09/27 15:59:27;;;;;;;;;;;;;;;;;;4977296;28;7255;-84
2022/09/27 16:01:57;;;;;;;;;;;;;;;;;;4977732;28;7081;-83
2022/09/27 16:04:23;;;;;;;;;;;;;;;;;;4977345;28;6872;-84
2022/09/27 16:06:48;;;;;;;;;;;;;;;;;;4977169;28;7327;-82
2022/09/27 16:09:19;;;;;;;;;;;;;;;;;;4977032;28;6993;-81
2022/09/27 16:11:48;;;;;;;;;;;;;;;;;;4977592;28;9630;-82
2022/09/27 16:14:17;;;;;;;;;;;;;;;;;;4977428;28;7018;-81
2022/09/27 16:16:44;;;;;;;;;;;;;;;;;;4978281;28;9133;-82
2022/09/27 16:19:09;;;;;;;;;;;;;;;;;;4977378;28;7030;-83
2022/09/27 16:21:35;;;;;;;;;;;;;;;;;;4977432;28;8408;-82
2022/09/27 16:24:02;;;;;;;;;;;;;;;;;;4978010;28;8704;-83
2022/09/27 16:26:27;;;;;;;;;;;;;;;;;;4976637;28;7158;-81
2022/09/27 16:28:53;;;;;;;;;;;;;;;;;;4977175;28;8495;-82
2022/09/27 16:31:18;;;;;;;;;;;;;;;;;;4976627;28;7022;-80
2022/09/27 16:33:46;;;;;;;;;;;;;;;;;;4976608;28;7021;-81
2022/09/27 16:36:15;;;;;;;;;;;;;;;;;;4976830;28;8457;-82
2022/09/27 16:38:42;;;;;;;;;;;;;;;;;;4976728;28;8747;-82
2022/09/27 16:41:07;;;;;;;;;;;;;;;;;;4977220;28;7001;-81
2022/09/27 16:43:33;;;;;;;;;;;;;;;;;;4976977;28;8608;-81
2022/09/27 16:46:10;;;;;;;;;;;;;;;;;;4976896;28;8465;-82
2022/09/27 16:48:37;;;;;;;;;;;;;;;;;;4976445;28;7262;-81
2022/09/27 16:53:48;;;;;;;;;;;;;;;;;;4978122;28;6811;-82
2022/09/27 16:56:14;;;;;;;;;;;;;;;;;;4976561;28;7137;-83
2022/09/27 16:58:39;;;;;;;;;;;;;;;;;;4976557;28;8384;-81
2022/09/27 17:01:06;;;;;;;;;;;;;;;;;;4976241;28;8780;-81
2022/09/27 17:03:32;;;;;;;;;;;;;;;;;;4976510;28;7379;-82
2022/09/27 17:06:02;;;;;;;;;;;;;;;;;;4976383;28;8192;-81
2022/09/27 17:08:28;;;;;;;;;;;;;;;;;;4976064;28;7093;-81
2022/09/27 17:10:55;;;;;;;;;;;;;;;;;;4976005;28;7006;-81
2022/09/27 17:13:22;;;;;;;;;;;;;;;;;;4976355;28;8467;-81
2022/09/27 17:15:47;;;;;;;;;;;;;;;;;;4976018;28;8767;-82
2022/09/27 17:18:14;;;;;;;;;;;;;;;;;;4976194;28;7056;-82
2022/09/27 17:20:39;;;;;;;;;;;;;;;;;;4976331;28;8444;-83
2022/09/27 17:23:05;;;;;;;;;;;;;;;;;;4975624;28;7156;-84
2022/09/27 17:25:31;;;;;;;;;;;;;;;;;;4976144;28;7132;-84
2022/09/27 17:27:56;;;;;;;;;;;;;;;;;;4975993;28;9308;-84
2022/09/27 17:30:22;;;;;;;;;;;;;;;;;;4976191;28;7133;-83
2022/09/27 17:32:49;;;;;;;;;;;;;;;;;;4975952;28;7033;-82
2022/09/27 17:35:14;;;;;;;;;;;;;;;;;;4975139;28;8724;-81